»·PEaware :: N891AT KTOA-KPSP

N891AT :: KTOA-KPSP

FLIGHT INFORMATION

Flight Status: Arrived
Operator: Privately registered:
United States
More flights under this callsign
Pilot: Dean S. (16265)
Aircraft: CESSNA 172RG CUTLASS
(C72R)
More flights by this aircraft type
Origin: KTOA Zamperini
United States
Destination: KPSP Palm Springs Intl
United States
More flights between these airports :: More routes between these airports
Route: +KSLI KFUL PDZ DEWAY
File this flight plan on PilotEdge
Remarks:
Altitude:
(Current/Filed)
120ft
Speed:
(Current/Filed)
7500kts
Departed: 17-Sep-17 01:05 PM
Arrived: 17-Sep-17 01:59 PM
Distance/Time
Traveled:
92nm/0:54
Distance/Time
To Go:
Arrived

Flight Plot

Page will automatically refresh every two minutes.

Flight plan parsing failed; only flown route is shown


Map Options




Map Legend


Flown Route
Filed Route
Departure Airport
Arrival Airport
Navaid (VOR, NDB)
Fix

Horizontal Profiles

Position Reports

Time Latitude Longitude Heading Altitude Ground
Speed
17-Sep-17 13:03 33.797191 -118.336124 345 107ft 0kts
17-Sep-17 13:04 33.797191 -118.336124 345 107ft 0kts
17-Sep-17 13:05 33.798473 -118.335691 72 107ft 6kts
17-Sep-17 13:06 33.798905 -118.333686 38 106ft 7kts
17-Sep-17 13:07 33.799143 -118.333458 37 107ft 0kts
17-Sep-17 13:08 33.799828 -118.333289 314 107ft 11kts
17-Sep-17 13:09 33.802648 -118.337591 307 106ft 66kts
17-Sep-17 13:10 33.819871 -118.357339 356 742ft 103kts
17-Sep-17 13:11 33.836779 -118.337555 87 1578ft 109kts
17-Sep-17 13:12 33.814074 -118.304516 145 1512ft 144kts
17-Sep-17 13:13 33.802133 -118.268752 87 2442ft 106kts
17-Sep-17 13:14 33.802024 -118.239989 98 3480ft 85kts
17-Sep-17 13:15 33.798688 -118.211623 89 4286ft 85kts
17-Sep-17 13:16 33.798802 -118.176260 90 4612ft 124kts
17-Sep-17 13:17 33.797384 -118.131724 94 4580ft 149kts
17-Sep-17 13:18 33.793270 -118.077540 95 3485ft 166kts
17-Sep-17 13:19 33.806854 -118.034319 40 3512ft 144kts
17-Sep-17 13:20 33.834456 -118.011654 29 4516ft 105kts
17-Sep-17 13:21 33.859670 -117.994204 29 5223ft 99kts
17-Sep-17 13:22 33.877212 -117.968399 84 5681ft 115kts
17-Sep-17 13:23 33.877965 -117.918627 90 4929ft 153kts
17-Sep-17 13:24 33.878754 -117.879259 80 5808ft 116kts
17-Sep-17 13:25 33.885141 -117.846302 76 6614ft 95kts
17-Sep-17 13:26 33.889782 -117.814218 82 7185ft 97kts
17-Sep-17 13:27 33.892160 -117.781352 86 7642ft 102kts
17-Sep-17 13:28 33.893167 -117.742937 88 7767ft 122kts
17-Sep-17 13:29 33.893665 -117.695877 88 7273ft 153kts
17-Sep-17 13:30 33.897413 -117.647912 84 7331ft 132kts
17-Sep-17 13:31 33.901395 -117.602540 81 7319ft 136kts
17-Sep-17 13:32 33.907780 -117.557307 79 7334ft 136kts
17-Sep-17 13:33 33.915443 -117.512501 77 7357ft 136kts
17-Sep-17 13:34 33.923683 -117.467847 76 7380ft 136kts
17-Sep-17 13:35 33.924666 -117.422625 99 7467ft 132kts
17-Sep-17 13:36 33.922786 -117.377698 91 7538ft 134kts
17-Sep-17 13:37 33.920384 -117.332574 94 7614ft 135kts
17-Sep-17 13:38 33.917202 -117.287551 94 7675ft 135kts
17-Sep-17 13:39 33.919009 -117.242447 88 7743ft 135kts
17-Sep-17 13:40 33.919541 -117.197101 93 7800ft 135kts
17-Sep-17 13:41 33.929141 -117.153839 73 7775ft 135kts
17-Sep-17 13:42 33.931969 -117.108703 92 7172ft 136kts
17-Sep-17 13:43 33.929001 -117.064028 95 6221ft 132kts
17-Sep-17 13:44 33.926815 -117.021203 88 5604ft 121kts
17-Sep-17 13:45 33.927666 -116.980363 91 5290ft 117kts
17-Sep-17 13:46 33.925800 -116.941211 94 5045ft 116kts
17-Sep-17 13:47 33.925978 -116.902646 75 4872ft 111kts
17-Sep-17 13:48 33.930916 -116.865605 85 4744ft 109kts
17-Sep-17 13:49 33.939076 -116.830973 83 4747ft 107kts
17-Sep-17 13:50 33.938683 -116.795023 93 4836ft 103kts
17-Sep-17 13:51 33.938631 -116.764062 65 5244ft 87kts
17-Sep-17 13:52 33.945373 -116.730743 100 5128ft 106kts
17-Sep-17 13:53 33.938057 -116.697756 108 5257ft 106kts
17-Sep-17 13:54 33.929735 -116.662439 94 5209ft 111kts
17-Sep-17 13:55 33.924312 -116.625509 88 4761ft 129kts
17-Sep-17 13:56 33.924789 -116.585729 94 4362ft 105kts
17-Sep-17 13:57 33.919172 -116.550241 100 4043ft 106kts
17-Sep-17 13:58 33.895491 -116.521923 141 2357ft 127kts
17-Sep-17 13:59 33.867223 -116.506189 179 1353ft 110kts
17-Sep-17 14:00 33.843968 -116.498076 135 1206ft 77kts
17-Sep-17 14:01 33.828663 -116.483536 146 1381ft 75kts
17-Sep-17 14:02 33.815970 -116.491817 320 872ft 112kts
17-Sep-17 14:03 33.828760 -116.503911 320 481ft 9kts
17-Sep-17 14:04 33.827286 -116.501566 144 481ft 18kts

Navigation Log

Ident Type
Flight plan parsing failed, navigation log unavailable